createdAt,value
2018-04-23T00:00:44.187Z,1.00
2018-04-23T00:03:12.962Z,0.87
2018-04-23T00:05:42.485Z,0.80
2018-04-23T00:08:11.310Z,0.80
2018-04-23T00:10:41.094Z,0.90
2018-04-23T00:13:09.862Z,0.90
2018-04-23T00:15:39.450Z,0.90
2018-04-23T00:18:08.207Z,0.90
2018-04-23T00:20:36.970Z,1.07
2018-04-23T00:23:06.300Z,0.90
2018-04-23T00:25:35.144Z,1.17
2018-04-23T00:28:03.897Z,0.90
2018-04-23T00:30:32.722Z,0.90
2018-04-23T00:33:01.743Z,1.20
2018-04-23T00:35:30.889Z,1.20
2018-04-23T00:37:59.705Z,1.20
2018-04-23T00:40:28.503Z,1.40
2018-04-23T00:42:57.666Z,1.10
2018-04-23T00:45:27.658Z,1.37
2018-04-23T00:47:56.781Z,1.30
2018-04-23T00:50:25.542Z,1.50
2018-04-23T00:53:06.908Z,1.23
2018-04-23T00:55:35.966Z,1.37
2018-04-23T00:58:04.727Z,1.60
2018-04-23T01:00:34.804Z,1.40
2018-04-23T01:03:03.557Z,1.60
2018-04-23T01:05:32.310Z,1.73
2018-04-23T01:08:01.911Z,1.80
2018-04-23T01:10:30.738Z,1.60
2018-04-23T01:12:59.543Z,1.97
2018-04-23T01:15:28.442Z,1.70
2018-04-23T01:17:57.197Z,1.80
2018-04-23T01:20:26.430Z,1.90
2018-04-23T01:22:55.306Z,1.70
2018-04-23T01:25:24.838Z,1.40
2018-04-23T01:27:53.601Z,1.60
2018-04-23T01:30:22.764Z,1.70
2018-04-23T01:32:53.292Z,1.50
2018-04-23T01:35:22.050Z,1.53
2018-04-23T01:37:51.321Z,1.57
2018-04-23T01:40:20.453Z,1.50
2018-04-23T01:42:49.213Z,1.37
2018-04-23T01:45:18.061Z,1.57
2018-04-23T01:47:46.904Z,1.40
2018-04-23T01:50:16.554Z,1.40
2018-04-23T01:52:45.442Z,1.50
2018-04-23T01:55:14.310Z,1.37
2018-04-23T01:57:43.955Z,1.57
2018-04-23T02:00:12.913Z,1.50
2018-04-23T02:02:42.202Z,1.60
2018-04-23T02:05:11.419Z,1.80
2018-04-23T02:07:41.537Z,1.60
2018-04-23T02:10:11.191Z,1.60
2018-04-23T02:12:40.123Z,1.50
2018-04-23T02:15:09.551Z,1.53
2018-04-23T02:17:39.323Z,1.63
2018-04-23T02:20:09.372Z,1.60
2018-04-23T02:22:38.628Z,1.67
2018-04-23T02:25:07.595Z,1.27
2018-04-23T02:27:36.857Z,1.60
2018-04-23T02:30:06.721Z,1.60
2018-04-23T02:32:35.931Z,1.47
2018-04-23T02:35:04.874Z,1.80
2018-04-23T02:37:34.680Z,1.57
2018-04-23T02:40:04.486Z,1.60
2018-04-23T02:42:33.457Z,1.70
2018-04-23T02:45:02.360Z,1.40
2018-04-23T02:47:32.068Z,1.60
2018-04-23T02:50:00.931Z,1.60
2018-04-23T02:52:29.767Z,1.70
2018-04-23T02:54:58.679Z,1.57
2018-04-23T02:57:27.530Z,1.30
2018-04-23T02:59:56.654Z,1.73
2018-04-23T03:02:25.573Z,1.30
2018-04-23T03:04:54.960Z,1.50
2018-04-23T03:07:23.841Z,1.50
2018-04-23T03:09:52.813Z,1.40
2018-04-23T03:12:21.888Z,1.87
2018-04-23T03:14:51.118Z,1.60
2018-04-23T03:17:20.467Z,1.37
2018-04-23T03:19:49.340Z,1.27
2018-04-23T03:22:18.222Z,1.40
2018-04-23T03:24:48.916Z,1.40
2018-04-23T03:27:17.770Z,1.30
2018-04-23T03:29:46.641Z,1.40
2018-04-23T03:32:16.355Z,1.30
2018-04-23T03:34:45.502Z,1.03
2018-04-23T03:37:14.390Z,1.30
2018-04-23T03:39:43.358Z,1.17
2018-04-23T03:42:13.489Z,1.43
2018-04-23T03:44:43.487Z,1.20
2018-04-23T03:47:12.326Z,0.97
2018-04-23T03:49:41.185Z,1.20
2018-04-23T03:52:10.424Z,1.07
2018-04-23T03:54:39.309Z,1.20
2018-04-23T03:57:08.159Z,1.07
2018-04-23T03:59:37.469Z,0.90
2018-04-23T04:02:06.582Z,1.17
2018-04-23T04:04:35.507Z,0.90
2018-04-23T04:07:05.538Z,1.00
2018-04-23T04:09:34.406Z,0.97
2018-04-23T04:12:15.219Z,1.10
2018-04-23T04:14:55.723Z,0.80
2018-04-23T04:17:26.589Z,1.10
2018-04-23T04:19:56.474Z,0.80
2018-04-23T04:22:26.153Z,1.10
2018-04-23T04:24:55.104Z,0.87
2018-04-23T04:27:24.936Z,0.90
2018-04-23T04:29:54.324Z,1.00
2018-04-23T04:32:23.157Z,0.90
2018-04-23T04:34:51.912Z,1.00
2018-04-23T04:37:21.486Z,1.00
2018-04-23T04:39:50.391Z,1.00
2018-04-23T04:42:19.175Z,0.90
2018-04-23T04:44:48.025Z,0.90
2018-04-23T04:47:16.872Z,1.10
2018-04-23T04:49:45.698Z,1.03
2018-04-23T04:52:14.538Z,1.07
2018-04-23T04:54:43.395Z,1.13
2018-04-23T04:57:12.218Z,0.80
2018-04-23T04:59:41.216Z,1.10
2018-04-23T05:02:11.133Z,1.10
2018-04-23T05:04:40.395Z,0.97
2018-04-23T05:07:09.516Z,1.13
2018-04-23T05:09:38.406Z,1.10
2018-04-23T05:12:07.158Z,1.07
2018-04-23T05:14:36.187Z,0.90
2018-04-23T05:17:05.185Z,0.83
2018-04-23T05:19:34.086Z,1.00
2018-04-23T05:22:02.850Z,0.87
2018-04-23T05:24:32.458Z,0.97
2018-04-23T05:27:01.462Z,0.80
2018-04-23T05:29:30.786Z,0.80
2018-04-23T05:31:59.757Z,0.90
2018-04-23T05:34:29.791Z,0.40
2018-04-23T05:36:58.663Z,0.50
2018-04-23T05:39:28.920Z,0.63
2018-04-23T05:41:57.763Z,0.80
2018-04-23T05:44:26.829Z,0.57
2018-04-23T05:46:55.732Z,0.60
2018-04-23T05:49:24.595Z,0.60
2018-04-23T05:51:54.464Z,0.50
2018-04-23T05:54:23.413Z,0.60
2018-04-23T05:56:52.391Z,0.43
2018-04-23T05:59:22.064Z,0.40
2018-04-23T06:01:50.900Z,0.47
2018-04-23T06:04:20.543Z,0.60
2018-04-23T06:06:49.551Z,0.60
2018-04-23T06:09:19.331Z,0.40
2018-04-23T06:11:48.198Z,0.40
2018-04-23T06:14:17.625Z,0.50
2018-04-23T06:16:47.254Z,0.53
2018-04-23T06:19:16.189Z,0.50
2018-04-23T06:21:45.315Z,0.50
2018-04-23T06:24:14.595Z,0.50
2018-04-23T06:26:43.566Z,0.50
2018-04-23T06:29:12.432Z,0.40
2018-04-23T06:31:41.656Z,0.50
2018-04-23T06:34:10.598Z,0.50
2018-04-23T06:36:40.329Z,0.60
2018-04-23T06:39:09.702Z,0.57
2018-04-23T06:41:38.980Z,0.40
2018-04-23T06:44:07.852Z,0.40
2018-04-23T06:46:36.705Z,0.70
2018-04-23T06:49:05.619Z,0.60
2018-04-23T06:51:34.469Z,0.50
2018-04-23T06:54:03.339Z,0.60
2018-04-23T06:56:32.348Z,0.53
2018-04-23T06:59:01.301Z,0.50
2018-04-23T07:01:30.207Z,0.40
2018-04-23T07:03:59.877Z,0.60
2018-04-23T07:06:28.754Z,0.43
2018-04-23T07:08:58.528Z,0.30
2018-04-23T07:11:28.202Z,0.30
2018-04-23T07:13:57.034Z,0.47
2018-04-23T07:16:26.149Z,0.53
2018-04-23T07:18:55.497Z,0.40
2018-04-23T07:21:25.090Z,0.33
2018-04-23T07:23:53.948Z,0.40
2018-04-23T07:26:23.285Z,0.50
2018-04-23T07:28:52.123Z,0.30
2018-04-23T07:31:20.996Z,0.67
2018-04-23T07:33:49.924Z,0.40
2018-04-23T07:36:19.102Z,0.40
2018-04-23T07:38:47.957Z,0.37
2018-04-23T07:41:16.898Z,0.57
2018-04-23T07:43:45.771Z,0.50
2018-04-23T07:46:14.653Z,0.33
2018-04-23T07:48:43.562Z,0.40
2018-04-23T07:51:12.417Z,0.50
2018-04-23T07:53:41.505Z,0.33
2018-04-23T07:56:10.798Z,0.50
2018-04-23T07:58:40.454Z,0.83
2018-04-23T08:01:09.537Z,0.50
2018-04-23T08:03:38.830Z,0.20
2018-04-23T08:06:08.454Z,0.50
2018-04-23T08:08:38.573Z,0.50
2018-04-23T08:11:07.799Z,0.40
2018-04-23T08:13:36.688Z,0.50
2018-04-23T08:16:05.763Z,0.40
2018-04-23T08:18:34.739Z,0.30
2018-04-23T08:21:03.747Z,0.50
2018-04-23T08:23:34.486Z,0.53
2018-04-23T08:26:04.104Z,0.30
2018-04-23T08:28:33.859Z,1.40
2018-04-23T08:31:03.496Z,0.50
2018-04-23T08:33:32.439Z,0.50
2018-04-23T08:36:01.415Z,0.53
2018-04-23T08:38:31.032Z,0.50
2018-04-23T08:41:00.688Z,0.40
2018-04-23T08:43:29.623Z,0.67
2018-04-23T08:45:58.523Z,0.60
2018-04-23T08:48:27.368Z,0.60
2018-04-23T08:50:56.315Z,0.50
2018-04-23T08:53:25.945Z,0.50
2018-04-23T08:55:55.607Z,0.60
2018-04-23T08:58:25.065Z,0.37
2018-04-23T09:00:53.938Z,0.50
2018-04-23T09:03:22.810Z,0.50
2018-04-23T09:05:51.750Z,0.57
2018-04-23T09:08:21.416Z,0.40
2018-04-23T09:10:50.661Z,0.50
2018-04-23T09:13:19.978Z,0.47
2018-04-23T09:15:48.868Z,0.57
2018-04-23T09:18:18.174Z,0.50
2018-04-23T09:20:47.465Z,0.67
2018-04-23T09:23:17.126Z,0.43
2018-04-23T09:25:45.969Z,0.40
2018-04-23T09:28:15.663Z,0.50
2018-04-23T09:30:45.557Z,0.50
2018-04-23T09:33:14.462Z,0.83
2018-04-23T09:35:43.403Z,0.70
2018-04-23T09:38:13.390Z,0.50
2018-04-23T09:40:42.230Z,0.80
2018-04-23T09:43:11.429Z,0.63
2018-04-23T09:45:41.460Z,0.50
2018-04-23T09:48:10.235Z,0.60
2018-04-23T09:50:39.894Z,0.57
2018-04-23T09:53:08.654Z,0.80
2018-04-23T09:55:37.419Z,0.70
2018-04-23T09:58:06.250Z,0.80
2018-04-23T10:00:35.150Z,0.90
2018-04-23T10:03:10.011Z,0.70
2018-04-23T10:05:39.271Z,0.83
2018-04-23T10:08:08.026Z,0.73
2018-04-23T10:10:37.228Z,0.60
2018-04-23T10:13:06.378Z,0.90
2018-04-23T10:15:35.144Z,0.60
2018-04-23T10:18:04.923Z,0.90
2018-04-23T10:20:33.723Z,0.90
2018-04-23T10:23:02.829Z,0.90
2018-04-23T10:25:31.654Z,1.10
2018-04-23T10:28:00.434Z,1.20
2018-04-23T10:30:29.970Z,0.97
2018-04-23T10:32:58.825Z,0.93
2018-04-23T10:35:27.592Z,1.00
2018-04-23T10:37:56.724Z,1.00
2018-04-23T10:40:25.550Z,1.00
2018-04-23T10:42:54.315Z,1.07
2018-04-23T10:45:23.883Z,0.90
2018-04-23T10:47:52.742Z,1.10
2018-04-23T10:50:21.510Z,1.30
2018-04-23T10:52:50.727Z,1.10
2018-04-23T10:55:20.344Z,1.20
2018-04-23T10:57:49.114Z,1.20
2018-04-23T11:00:18.728Z,1.27
2018-04-23T11:02:48.356Z,1.20
2018-04-23T11:05:17.126Z,1.20
2018-04-23T11:07:46.293Z,1.33
2018-04-23T11:10:15.506Z,1.40
2018-04-23T11:12:44.342Z,1.27
2018-04-23T11:15:13.522Z,1.30
2018-04-23T11:17:42.838Z,1.30
2018-04-23T11:20:12.370Z,1.30
2018-04-23T11:22:41.274Z,1.47
2018-04-23T11:25:10.198Z,1.50
2018-04-23T11:27:39.225Z,1.40
2018-04-23T11:30:08.007Z,1.50
2018-04-23T11:32:37.941Z,1.83
2018-04-23T11:35:06.702Z,1.87
2018-04-23T11:37:35.791Z,1.73
2018-04-23T11:40:04.667Z,1.90
2018-04-23T11:42:33.443Z,1.47
2018-04-23T11:45:03.486Z,1.73
2018-04-23T11:47:32.326Z,2.00
2018-04-23T11:50:01.125Z,1.47
2018-04-23T11:52:31.019Z,1.80
2018-04-23T11:54:59.854Z,1.80
2018-04-23T11:57:28.990Z,1.77
2018-04-23T11:59:57.751Z,2.07
2018-04-23T12:02:27.853Z,2.10
2018-04-23T12:04:57.001Z,2.17
2018-04-23T12:07:25.761Z,2.40
2018-04-23T12:09:55.373Z,2.33
2018-04-23T12:12:24.903Z,2.53
2018-04-23T12:14:53.670Z,2.90
2018-04-23T12:17:23.258Z,2.50
2018-04-23T12:19:52.019Z,3.17
2018-04-23T12:22:20.774Z,3.10
2018-04-23T12:24:49.602Z,3.20
2018-04-23T12:27:18.360Z,3.50
2018-04-23T12:29:47.886Z,4.13
2018-04-23T12:32:16.743Z,4.10
2018-04-23T12:34:45.849Z,4.10
2018-04-23T12:37:15.626Z,4.43
2018-04-23T12:39:45.253Z,4.23
2018-04-23T12:42:14.019Z,4.67
2018-04-23T12:44:42.826Z,4.30
2018-04-23T12:47:11.658Z,4.70
2018-04-23T12:49:41.194Z,5.33
2018-04-23T12:52:09.963Z,5.20
2018-04-23T12:54:39.594Z,5.27
2018-04-23T12:57:09.641Z,4.77
2018-04-23T12:59:38.397Z,4.57
2018-04-23T13:02:07.994Z,4.90
2018-04-23T13:04:37.525Z,4.23
2018-04-23T13:07:06.283Z,4.90
2018-04-23T13:09:35.357Z,4.50
2018-04-23T13:12:04.490Z,4.90
2018-04-23T13:14:33.711Z,4.83
2018-04-23T13:17:03.030Z,4.53
2018-04-23T13:19:31.793Z,4.53
2018-04-23T13:22:01.410Z,4.60
2018-04-23T13:24:31.022Z,4.90
2018-04-23T13:27:00.249Z,5.00
2018-04-23T13:29:29.076Z,5.10
2018-04-23T13:31:57.902Z,5.50
2018-04-23T13:34:27.162Z,5.30
2018-04-23T13:36:56.413Z,4.80
2018-04-23T13:39:26.026Z,4.97
2018-04-23T13:41:55.552Z,4.70
2018-04-23T13:44:24.676Z,5.17
2018-04-23T13:46:53.514Z,4.67
2018-04-23T13:49:22.282Z,5.03
2018-04-23T13:51:51.057Z,5.00
2018-04-23T13:54:19.895Z,5.23
2018-04-23T13:56:48.658Z,6.23
2018-04-23T13:59:17.426Z,5.50
2018-04-23T14:01:46.289Z,5.60
2018-04-23T14:04:15.486Z,5.87
2018-04-23T14:06:45.022Z,6.40
2018-04-23T14:09:13.851Z,6.20
2018-04-23T14:11:43.646Z,6.10
2018-04-23T14:14:12.534Z,6.10
2018-04-23T14:16:41.319Z,6.00
2018-04-23T14:19:10.079Z,6.53
2018-04-23T14:21:39.706Z,7.67
2018-04-23T14:24:09.242Z,7.13
2018-04-23T14:26:38.006Z,7.90
2018-04-23T14:29:06.842Z,7.60
2018-04-23T14:31:35.606Z,7.90
2018-04-23T14:34:04.382Z,7.77
2018-04-23T14:36:34.371Z,8.80
2018-04-23T14:39:03.293Z,8.20
2018-04-23T14:41:32.551Z,9.97
2018-04-23T14:44:01.883Z,8.53
2018-04-23T14:46:31.030Z,7.77
2018-04-23T14:48:59.798Z,8.30
2018-04-23T14:51:29.390Z,8.40
2018-04-23T14:53:58.154Z,6.90
2018-04-23T14:56:26.917Z,8.03
2018-04-23T14:58:55.770Z,7.93
2018-04-23T15:01:24.534Z,6.77
2018-04-23T15:03:53.797Z,6.83
2018-04-23T15:06:22.709Z,6.90
2018-04-23T15:08:51.486Z,7.03
2018-04-23T15:11:21.370Z,7.03
2018-04-23T15:13:50.594Z,6.60
2018-04-23T15:16:19.741Z,6.43
2018-04-23T15:18:48.577Z,6.47
2018-04-23T15:21:18.211Z,5.93
2018-04-23T15:23:48.148Z,6.10
2018-04-23T15:26:16.921Z,6.53
2018-04-23T15:28:46.225Z,6.60
2018-04-23T15:31:15.831Z,6.23
2018-04-23T15:33:45.362Z,6.00
2018-04-23T15:36:14.201Z,5.73
2018-04-23T15:38:43.162Z,6.23
2018-04-23T15:41:12.061Z,6.00
2018-04-23T15:43:41.434Z,6.17
2018-04-23T15:46:11.099Z,6.00
2018-04-23T15:48:39.899Z,6.13
2018-04-23T15:51:08.697Z,5.47
2018-04-23T15:53:38.477Z,5.90
2018-04-23T15:56:07.250Z,5.50
2018-04-23T15:58:36.070Z,5.63
2018-04-23T16:01:05.242Z,5.10
2018-04-23T16:03:34.035Z,5.07
2018-04-23T16:06:02.833Z,5.03
2018-04-23T16:08:31.804Z,4.43
2018-04-23T16:11:01.499Z,4.13
2018-04-23T16:13:30.268Z,4.40
2018-04-23T16:15:59.113Z,3.70
2018-04-23T16:18:28.345Z,4.00
2018-04-23T16:20:58.003Z,3.30
2018-04-23T16:23:26.988Z,2.53
2018-04-23T16:25:56.058Z,2.77
2018-04-23T16:28:24.882Z,2.23
2018-04-23T16:30:53.740Z,2.53
2018-04-23T16:33:22.530Z,2.57
2018-04-23T16:35:51.310Z,2.20
2018-04-23T16:38:20.182Z,2.40
2018-04-23T16:40:49.769Z,2.33
2018-04-23T16:43:18.569Z,2.40
2018-04-23T16:45:47.910Z,1.90
2018-04-23T16:48:16.954Z,2.07
2018-04-23T16:50:45.913Z,1.70
2018-04-23T16:53:14.820Z,1.90
2018-04-23T16:55:43.635Z,1.73
2018-04-23T16:58:12.409Z,1.63
2018-04-23T17:00:41.261Z,1.60
2018-04-23T17:03:10.854Z,1.70
2018-04-23T17:05:39.634Z,1.50
2018-04-23T17:08:08.750Z,1.70
2018-04-23T17:10:37.534Z,1.90
2018-04-23T17:13:06.760Z,1.50
2018-04-23T17:15:35.958Z,1.70
2018-04-23T17:18:05.586Z,1.53
2018-04-23T17:20:34.681Z,1.53
2018-04-23T17:23:04.469Z,1.30
2018-04-23T17:25:33.687Z,1.60
2018-04-23T17:28:02.541Z,1.53
2018-04-23T17:30:31.962Z,1.40
2018-04-23T17:33:01.915Z,1.40
2018-04-23T17:35:31.093Z,1.60
2018-04-23T17:38:00.232Z,1.47
2018-04-23T17:40:29.307Z,1.60
2018-04-23T17:42:59.053Z,1.40
2018-04-23T17:45:28.064Z,1.60
2018-04-23T17:47:56.996Z,1.50
2018-04-23T17:50:27.105Z,1.40
2018-04-23T17:52:56.249Z,1.60
2018-04-23T17:55:26.521Z,1.60
2018-04-23T17:57:58.593Z,1.50
2018-04-23T18:00:28.541Z,1.67
2018-04-23T18:02:57.693Z,1.87
2018-04-23T18:05:26.578Z,1.57
2018-04-23T18:07:55.653Z,1.60
2018-04-23T18:10:25.839Z,1.63
2018-04-23T18:12:55.893Z,1.53
2018-04-23T18:15:25.940Z,1.63
2018-04-23T18:17:54.869Z,1.77
2018-04-23T18:20:24.128Z,1.80
2018-04-23T18:22:54.867Z,1.77
2018-04-23T18:25:23.896Z,1.70
2018-04-23T18:27:52.797Z,1.70
2018-04-23T18:30:21.792Z,1.70
2018-04-23T18:32:50.782Z,1.93
2018-04-23T18:35:19.648Z,2.00
2018-04-23T18:37:49.286Z,1.70
2018-04-23T18:40:18.273Z,1.80
2018-04-23T18:42:47.093Z,2.10
2018-04-23T18:45:15.873Z,1.70
2018-04-23T18:50:17.172Z,1.97
2018-04-23T18:52:45.942Z,1.90
2018-04-23T18:55:14.713Z,1.90
2018-04-23T18:57:43.582Z,1.67
2018-04-23T19:00:13.118Z,1.80
2018-04-23T19:02:41.946Z,1.90
2018-04-23T19:05:10.915Z,2.20
2018-04-23T19:07:39.715Z,1.70
2018-04-23T19:10:08.930Z,1.80
2018-04-23T19:12:37.792Z,1.87
2018-04-23T19:15:07.139Z,1.90
2018-04-23T19:17:36.223Z,1.70
2018-04-23T19:20:05.124Z,1.83
2018-04-23T19:22:34.008Z,1.90
2018-04-23T19:25:02.843Z,2.77
2018-04-23T19:27:31.752Z,2.00
2018-04-23T19:30:01.478Z,2.00
2018-04-23T19:32:31.119Z,2.13
2018-04-23T19:34:59.978Z,2.30
2018-04-23T19:37:29.514Z,2.40
2018-04-23T19:39:58.292Z,2.50
2018-04-23T19:42:27.991Z,2.20
2018-04-23T19:44:57.534Z,2.60
2018-04-23T19:47:26.310Z,2.10
2018-04-23T19:49:55.409Z,2.13
2018-04-23T19:52:25.395Z,2.40
2018-04-23T19:54:54.304Z,2.40
2018-04-23T19:57:23.305Z,2.50
2018-04-23T19:59:53.250Z,2.23
2018-04-23T20:02:22.154Z,2.10
2018-04-23T20:04:51.145Z,2.07
2018-04-23T20:07:21.246Z,2.60
2018-04-23T20:09:51.596Z,2.43
2018-04-23T20:12:20.617Z,2.60
2018-04-23T20:14:49.631Z,2.63
2018-04-23T20:17:18.696Z,2.43
2018-04-23T20:19:47.794Z,2.17
2018-04-23T20:22:16.730Z,2.40
2018-04-23T20:24:45.952Z,2.30
2018-04-23T20:27:15.669Z,2.00
2018-04-23T20:29:44.599Z,2.17
2018-04-23T20:32:13.525Z,1.90
2018-04-23T20:34:42.435Z,2.10
2018-04-23T20:37:11.362Z,1.90
2018-04-23T20:39:41.172Z,1.83
2018-04-23T20:42:12.775Z,1.93
2018-04-23T20:44:41.869Z,1.80
2018-04-23T20:47:11.540Z,1.90
2018-04-23T20:49:40.512Z,1.90
2018-04-23T20:52:09.791Z,1.90
2018-04-23T20:54:38.731Z,1.60
2018-04-23T20:57:07.918Z,1.70
2018-04-23T20:59:36.879Z,1.63
2018-04-23T21:02:06.036Z,1.97
2018-04-23T21:04:35.734Z,1.80
2018-04-23T21:07:05.403Z,1.70
2018-04-23T21:09:34.496Z,1.60
2018-04-23T21:12:03.542Z,1.80
2018-04-23T21:14:32.556Z,1.50
2018-04-23T21:17:01.893Z,1.67
2018-04-23T21:19:31.433Z,1.70
2018-04-23T21:22:00.580Z,1.53
2018-04-23T21:24:30.593Z,1.70
2018-04-23T21:27:00.574Z,1.60
2018-04-23T21:29:29.481Z,1.60
2018-04-23T21:31:59.187Z,1.60
2018-04-23T21:34:28.010Z,1.50
2018-04-23T21:36:57.200Z,1.53
2018-04-23T21:39:26.068Z,1.50
2018-04-23T21:41:55.804Z,1.40
2018-04-23T21:44:24.725Z,1.77
2018-04-23T21:46:54.396Z,1.67
2018-04-23T21:49:23.975Z,1.60
2018-04-23T21:51:52.898Z,1.40
2018-04-23T21:54:21.840Z,1.67
2018-04-23T21:56:51.461Z,1.40
2018-04-23T21:59:21.269Z,1.60
2018-04-23T22:01:50.914Z,1.53
2018-04-23T22:04:19.827Z,1.50
2018-04-23T22:06:49.568Z,1.50
2018-04-23T22:09:18.518Z,1.40
2018-04-23T22:11:47.645Z,1.57
2018-04-23T22:14:17.007Z,1.40
2018-04-23T22:16:46.794Z,1.30
2018-04-23T22:19:15.850Z,1.37
2018-04-23T22:21:44.759Z,1.40
2018-04-23T22:24:13.903Z,1.37
2018-04-23T22:26:44.022Z,1.40
2018-04-23T22:29:15.889Z,1.40
2018-04-23T22:31:45.674Z,1.60
2018-04-23T22:34:16.508Z,1.50
2018-04-23T22:36:46.382Z,1.50
2018-04-23T22:39:16.390Z,1.33
2018-04-23T22:41:46.135Z,1.40
2018-04-23T22:44:16.054Z,1.87
2018-04-23T22:46:45.005Z,1.50
2018-04-23T22:49:15.044Z,2.10
2018-04-23T22:51:44.352Z,1.73
2018-04-23T22:54:13.376Z,2.10
2018-04-23T22:56:43.046Z,2.57
2018-04-23T22:59:12.642Z,2.43
2018-04-23T23:01:41.540Z,2.53
2018-04-23T23:04:10.552Z,2.33
2018-04-23T23:06:39.744Z,2.60
2018-04-23T23:09:10.312Z,2.97
2018-04-23T23:11:39.266Z,2.90
2018-04-23T23:14:08.377Z,3.00
2018-04-23T23:16:37.181Z,3.00
2018-04-23T23:19:07.660Z,3.07
2018-04-23T23:21:38.553Z,3.23
2018-04-23T23:24:08.318Z,3.00
2018-04-23T23:26:38.239Z,3.07
2018-04-23T23:29:08.861Z,2.93
2018-04-23T23:34:14.222Z,3.00
2018-04-23T23:36:43.184Z,2.90
2018-04-23T23:39:12.425Z,3.00
2018-04-23T23:41:41.504Z,3.20
2018-04-23T23:44:10.408Z,2.77
2018-04-23T23:46:40.256Z,2.93
2018-04-23T23:49:09.212Z,3.20
2018-04-23T23:51:38.458Z,2.90
2018-04-23T23:54:07.842Z,2.80
2018-04-23T23:56:37.107Z,2.60
2018-04-23T23:59:06.765Z,2.87
